createdAt,value
2018-01-27T00:01:00.859Z,18.70
2018-01-27T00:03:30.727Z,16.75
2018-01-27T00:05:59.081Z,17.02
2018-01-27T00:08:27.403Z,19.10
2018-01-27T00:10:57.233Z,21.05
2018-01-27T00:13:26.323Z,19.08
2018-01-27T00:15:54.644Z,19.67
2018-01-27T00:18:22.968Z,19.90
2018-01-27T00:20:51.301Z,21.67
2018-01-27T00:23:19.724Z,20.70
2018-01-27T00:25:48.237Z,21.27
2018-01-27T00:28:17.438Z,19.80
2018-01-27T00:30:46.525Z,20.02
2018-01-27T00:33:15.734Z,18.60
2018-01-27T00:35:44.066Z,17.30
2018-01-27T00:38:12.568Z,17.42
2018-01-27T00:40:41.728Z,18.12
2018-01-27T00:43:10.059Z,18.23
2018-01-27T00:45:38.371Z,18.95
2018-01-27T00:48:06.730Z,19.45
2018-01-27T00:50:35.059Z,21.02
2018-01-27T00:53:03.370Z,17.90
2018-01-27T00:55:31.719Z,20.27
2018-01-27T00:58:00.052Z,18.20
2018-01-27T01:00:28.646Z,17.35
2018-01-27T01:02:56.993Z,16.92
2018-01-27T01:05:25.299Z,17.90
2018-01-27T01:07:53.648Z,17.70
2018-01-27T01:10:22.203Z,16.95
2018-01-27T01:12:50.749Z,17.98
2018-01-27T01:15:19.104Z,18.20
2018-01-27T01:17:47.492Z,18.27
2018-01-27T01:20:15.796Z,18.02
2018-01-27T01:22:44.150Z,19.77
2018-01-27T01:25:12.520Z,18.10
2018-01-27T01:27:40.857Z,15.85
2018-01-27T01:30:09.174Z,18.87
2018-01-27T01:32:37.519Z,22.00
2018-01-27T01:35:05.843Z,22.02
2018-01-27T01:37:34.189Z,17.70
2018-01-27T01:40:02.701Z,19.25
2018-01-27T01:42:36.462Z,19.12
2018-01-27T01:45:04.881Z,19.48
2018-01-27T01:47:33.226Z,17.05
2018-01-27T01:50:02.329Z,14.23
2018-01-27T01:52:30.686Z,15.90
2018-01-27T01:54:58.992Z,15.52
2018-01-27T01:57:27.337Z,17.92
2018-01-27T01:59:55.697Z,18.48
2018-01-27T02:02:24.028Z,18.30
2018-01-27T02:04:52.490Z,18.42
2018-01-27T02:07:20.906Z,18.85
2018-01-27T02:09:49.229Z,16.60
2018-01-27T02:12:17.602Z,18.35
2018-01-27T02:14:45.951Z,19.20
2018-01-27T02:17:15.174Z,19.15
2018-01-27T02:19:43.486Z,20.73
2018-01-27T02:22:11.984Z,20.58
2018-01-27T02:24:40.330Z,21.55
2018-01-27T02:27:08.653Z,19.48
2018-01-27T02:29:37.884Z,18.75
2018-01-27T02:32:06.188Z,18.55
2018-01-27T02:34:34.683Z,18.48
2018-01-27T02:37:02.995Z,19.23
2018-01-27T02:39:31.340Z,18.23
2018-01-27T02:41:59.652Z,18.17
2018-01-27T02:44:27.980Z,19.33
2018-01-27T02:46:56.316Z,18.15
2018-01-27T02:49:24.621Z,20.00
2018-01-27T02:51:52.986Z,20.20
2018-01-27T02:54:21.316Z,21.73
2018-01-27T02:56:51.058Z,20.50
2018-01-27T02:59:19.401Z,20.12
2018-01-27T03:01:48.468Z,20.25
2018-01-27T03:04:16.804Z,20.25
2018-01-27T03:06:45.127Z,20.00
2018-01-27T03:09:13.560Z,20.65
2018-01-27T03:11:41.926Z,20.58
2018-01-27T03:14:10.249Z,19.92
2018-01-27T03:16:38.745Z,21.12
2018-01-27T03:19:07.856Z,20.10
2018-01-27T03:21:36.960Z,19.08
2018-01-27T03:24:05.281Z,17.08
2018-01-27T03:26:33.599Z,18.20
2018-01-27T03:29:02.836Z,18.10
2018-01-27T03:31:31.287Z,18.05
2018-01-27T03:33:59.625Z,18.35
2018-01-27T03:36:27.935Z,18.37
2018-01-27T03:38:57.025Z,18.10
2018-01-27T03:41:26.171Z,18.70
2018-01-27T03:43:54.483Z,19.27
2018-01-27T03:46:23.601Z,20.65
2018-01-27T03:48:51.919Z,21.95
2018-01-27T03:51:20.275Z,22.42
2018-01-27T03:53:48.576Z,23.62
2018-01-27T03:56:16.903Z,24.50
2018-01-27T03:58:45.242Z,23.10
2018-01-27T04:01:13.568Z,24.35
2018-01-27T04:03:41.902Z,23.02
2018-01-27T04:06:10.223Z,24.50
2018-01-27T04:08:38.578Z,25.83
2018-01-27T04:11:06.985Z,22.77
2018-01-27T04:13:35.339Z,22.10
2018-01-27T04:16:03.660Z,24.90
2018-01-27T04:18:31.964Z,23.90
2018-01-27T04:21:00.301Z,24.75
2018-01-27T04:23:28.619Z,30.92
2018-01-27T04:25:56.958Z,25.95
2018-01-27T04:28:25.274Z,26.90
2018-01-27T04:30:53.635Z,30.60
2018-01-27T04:33:21.955Z,28.30
2018-01-27T04:35:50.505Z,30.88
2018-01-27T04:38:18.870Z,35.38
2018-01-27T04:40:47.189Z,28.65
2018-01-27T04:43:15.683Z,29.95
2018-01-27T04:45:44.011Z,25.85
2018-01-27T04:48:12.539Z,29.83
2018-01-27T04:50:40.982Z,31.35
2018-01-27T04:53:10.060Z,28.05
2018-01-27T04:55:38.385Z,29.27
2018-01-27T04:58:06.687Z,28.35
2018-01-27T05:00:35.011Z,35.88
2018-01-27T05:03:04.088Z,30.15
2018-01-27T05:05:32.465Z,38.95
2018-01-27T05:08:00.788Z,34.58
2018-01-27T05:10:29.100Z,30.70
2018-01-27T05:12:57.423Z,34.80
2018-01-27T05:15:25.755Z,32.13
2018-01-27T05:17:54.108Z,29.27
2018-01-27T05:20:22.463Z,27.05
2018-01-27T05:22:51.671Z,26.12
2018-01-27T05:25:20.032Z,29.33
2018-01-27T05:27:48.350Z,28.62
2018-01-27T05:30:16.736Z,27.10
2018-01-27T05:32:45.088Z,24.90
2018-01-27T05:35:13.438Z,27.95
2018-01-27T05:37:41.778Z,29.00
2018-01-27T05:40:10.099Z,37.45
2018-01-27T05:42:38.607Z,32.30
2018-01-27T05:45:07.106Z,26.70
2018-01-27T05:47:35.422Z,25.83
2018-01-27T05:50:03.732Z,28.90
2018-01-27T05:52:32.167Z,25.37
2018-01-27T05:55:01.236Z,26.65
2018-01-27T05:57:29.583Z,25.70
2018-01-27T05:59:57.884Z,26.67
2018-01-27T06:02:27.731Z,25.42
2018-01-27T06:04:56.050Z,25.23
2018-01-27T06:07:24.351Z,26.00
2018-01-27T06:09:52.682Z,23.85
2018-01-27T06:12:20.984Z,27.33
2018-01-27T06:14:49.320Z,24.98
2018-01-27T06:17:17.627Z,23.60
2018-01-27T06:19:45.959Z,22.98
2018-01-27T06:22:14.439Z,26.92
2018-01-27T06:24:42.940Z,28.05
2018-01-27T06:27:11.263Z,25.77
2018-01-27T06:29:39.593Z,26.27
2018-01-27T06:32:07.921Z,36.60
2018-01-27T06:34:36.251Z,28.40
2018-01-27T06:37:04.646Z,24.40
2018-01-27T06:39:32.958Z,23.85
2018-01-27T06:42:02.125Z,33.17
2018-01-27T06:44:30.588Z,26.15
2018-01-27T06:46:58.935Z,25.25
2018-01-27T06:49:27.284Z,28.38
2018-01-27T06:51:55.688Z,26.55
2018-01-27T06:54:23.995Z,25.65
2018-01-27T06:56:52.413Z,23.73
2018-01-27T06:59:20.734Z,24.08
2018-01-27T07:01:49.092Z,21.95
2018-01-27T07:04:18.156Z,23.70
2018-01-27T07:06:48.026Z,26.17
2018-01-27T07:11:51.595Z,25.05
2018-01-27T07:14:20.684Z,23.00
2018-01-27T07:16:49.006Z,26.02
2018-01-27T07:19:17.376Z,22.83
2018-01-27T07:21:45.688Z,24.98
2018-01-27T07:24:14.155Z,23.83
2018-01-27T07:26:42.514Z,26.02
2018-01-27T07:29:10.835Z,23.35
2018-01-27T07:31:39.207Z,24.23
2018-01-27T07:34:07.538Z,22.17
2018-01-27T07:36:35.864Z,22.60
2018-01-27T07:39:04.200Z,22.75
2018-01-27T07:41:32.529Z,23.62
2018-01-27T07:44:01.765Z,23.15
2018-01-27T07:46:30.072Z,22.05
2018-01-27T07:48:58.390Z,23.00
2018-01-27T07:51:27.487Z,24.67
2018-01-27T07:53:56.575Z,22.35
2018-01-27T07:56:25.671Z,17.55
2018-01-27T07:58:54.807Z,17.85
2018-01-27T08:01:23.180Z,15.82
2018-01-27T08:03:51.501Z,13.95
2018-01-27T08:06:19.886Z,16.40
2018-01-27T08:08:48.183Z,16.25
2018-01-27T08:11:16.499Z,16.30
2018-01-27T08:13:44.872Z,15.30
2018-01-27T08:16:13.338Z,17.25
2018-01-27T08:18:41.660Z,14.87
2018-01-27T08:21:09.985Z,17.30
2018-01-27T08:23:38.302Z,14.65
2018-01-27T08:26:06.645Z,17.12
2018-01-27T08:28:34.986Z,16.98
2018-01-27T08:31:04.962Z,15.77
2018-01-27T08:33:33.289Z,15.90
2018-01-27T08:36:01.643Z,15.90
2018-01-27T08:38:29.980Z,14.70
2018-01-27T08:40:58.310Z,14.40
2018-01-27T08:43:27.435Z,14.18
2018-01-27T08:45:55.779Z,14.80
2018-01-27T08:48:24.172Z,16.77
2018-01-27T08:50:52.491Z,15.93
2018-01-27T08:53:20.847Z,16.00
2018-01-27T08:55:49.372Z,17.17
2018-01-27T08:58:17.767Z,16.80
2018-01-27T09:00:46.902Z,17.00
2018-01-27T09:03:15.229Z,15.43
2018-01-27T09:05:43.557Z,16.77
2018-01-27T09:08:11.902Z,14.82
2018-01-27T09:10:40.255Z,16.92
2018-01-27T09:13:08.617Z,16.40
2018-01-27T09:15:36.949Z,16.08
2018-01-27T09:18:05.489Z,19.77
2018-01-27T09:23:16.824Z,22.52
2018-01-27T09:25:45.928Z,22.00
2018-01-27T09:28:15.328Z,18.77
2018-01-27T09:30:43.913Z,21.95
2018-01-27T09:33:12.484Z,19.77
2018-01-27T09:35:41.206Z,22.50
2018-01-27T09:38:10.085Z,21.40
2018-01-27T09:40:38.595Z,19.98
2018-01-27T09:43:07.211Z,21.62
2018-01-27T09:45:35.590Z,21.98
2018-01-27T09:48:03.952Z,22.20
2018-01-27T09:50:33.201Z,22.73
2018-01-27T09:53:01.519Z,26.02
2018-01-27T09:55:30.613Z,25.10
2018-01-27T09:57:59.856Z,25.67
2018-01-27T10:00:28.224Z,23.73
2018-01-27T10:02:56.541Z,25.12
2018-01-27T10:05:25.769Z,23.27
2018-01-27T10:07:54.133Z,23.15
2018-01-27T10:10:22.453Z,21.48
2018-01-27T10:12:50.951Z,23.40
2018-01-27T10:15:19.403Z,22.00
2018-01-27T10:17:47.790Z,22.10
2018-01-27T10:20:16.366Z,22.25
2018-01-27T10:22:44.791Z,22.90
2018-01-27T10:25:14.087Z,22.65
2018-01-27T10:27:42.686Z,21.83
2018-01-27T10:30:12.024Z,23.10
2018-01-27T10:32:42.862Z,22.40
2018-01-27T10:35:13.625Z,23.65
2018-01-27T10:37:42.512Z,24.20
2018-01-27T10:40:11.553Z,24.83
2018-01-27T10:42:41.355Z,26.58
2018-01-27T10:45:11.799Z,24.30
2018-01-27T10:47:41.308Z,25.67
2018-01-27T10:50:12.334Z,25.55
2018-01-27T10:52:42.090Z,28.95
2018-01-27T10:55:12.192Z,26.35
2018-01-27T10:57:42.340Z,27.35
2018-01-27T11:00:10.955Z,23.50
2018-01-27T11:02:40.319Z,24.52
2018-01-27T11:08:20.890Z,24.97
2018-01-27T11:10:50.343Z,25.12
2018-01-27T11:13:19.176Z,22.17
2018-01-27T11:15:49.191Z,21.10
2018-01-27T11:18:18.478Z,24.05
2018-01-27T11:20:49.840Z,23.23
2018-01-27T11:23:19.285Z,25.52
2018-01-27T11:25:48.620Z,22.77
2018-01-27T11:28:17.409Z,23.02
2018-01-27T11:30:46.200Z,21.17
2018-01-27T11:33:16.426Z,21.80
2018-01-27T11:35:45.322Z,21.83
2018-01-27T11:38:14.543Z,22.73
2018-01-27T11:40:43.213Z,23.20
2018-01-27T11:43:11.614Z,24.50
2018-01-27T11:45:40.774Z,25.90
2018-01-27T11:48:09.332Z,25.27
2018-01-27T11:50:38.544Z,25.80
2018-01-27T11:53:07.002Z,22.90
2018-01-27T11:55:36.338Z,22.95
2018-01-27T11:58:05.496Z,25.87
2018-01-27T12:00:34.418Z,24.83
2018-01-27T12:03:04.170Z,22.65
2018-01-27T12:05:33.801Z,22.27
2018-01-27T12:08:02.315Z,24.10
2018-01-27T12:10:31.095Z,22.08
2018-01-27T12:12:59.840Z,25.67
2018-01-27T12:15:28.698Z,23.92
2018-01-27T12:17:57.290Z,25.40
2018-01-27T12:20:26.140Z,25.80
2018-01-27T12:22:54.694Z,25.23
2018-01-27T12:25:23.545Z,27.98
2018-01-27T12:27:53.368Z,27.45
2018-01-27T12:30:23.564Z,27.58
2018-01-27T12:32:52.017Z,28.80
2018-01-27T12:35:20.485Z,28.77
2018-01-27T12:37:49.903Z,24.35
2018-01-27T12:40:18.519Z,24.00
2018-01-27T12:42:46.863Z,25.62
2018-01-27T12:45:15.339Z,20.80
2018-01-27T12:47:44.813Z,23.27
2018-01-27T12:50:13.314Z,21.25
2018-01-27T12:52:41.628Z,24.95
2018-01-27T12:55:09.958Z,24.35
2018-01-27T12:57:38.272Z,22.70
2018-01-27T13:00:06.778Z,21.95
2018-01-27T13:02:35.866Z,22.00
2018-01-27T13:05:04.209Z,21.75
2018-01-27T13:07:32.536Z,19.70
2018-01-27T13:10:01.639Z,20.10
2018-01-27T13:12:30.783Z,20.37
2018-01-27T13:14:59.384Z,20.45
2018-01-27T13:17:28.644Z,21.45
2018-01-27T13:19:56.955Z,20.12
2018-01-27T13:22:25.303Z,20.48
2018-01-27T13:24:53.612Z,17.27
2018-01-27T13:27:21.990Z,19.87
2018-01-27T13:29:50.352Z,20.37
2018-01-27T13:32:18.669Z,21.70
2018-01-27T13:34:47.860Z,21.33
2018-01-27T13:37:17.860Z,20.90
2018-01-27T13:39:46.212Z,24.87
2018-01-27T13:42:14.574Z,25.95
2018-01-27T13:44:43.599Z,22.98
2018-01-27T13:47:11.927Z,26.70
2018-01-27T13:49:41.792Z,27.87
2018-01-27T13:52:10.164Z,25.90
2018-01-27T13:54:38.547Z,27.65
2018-01-27T13:57:06.878Z,24.27
2018-01-27T13:59:35.218Z,25.88
2018-01-27T14:02:03.687Z,24.27
2018-01-27T14:04:32.950Z,23.98
2018-01-27T14:07:01.352Z,22.85
2018-01-27T14:09:29.719Z,25.00
2018-01-27T14:11:58.168Z,25.37
2018-01-27T14:14:26.515Z,25.48
2018-01-27T14:16:55.605Z,25.58
2018-01-27T14:19:24.788Z,25.17
2018-01-27T14:21:53.226Z,26.17
2018-01-27T14:24:21.608Z,27.25
2018-01-27T14:26:49.957Z,23.75
2018-01-27T14:29:18.270Z,25.55
2018-01-27T14:31:46.610Z,26.10
2018-01-27T14:34:14.943Z,25.17
2018-01-27T14:36:43.308Z,24.90
2018-01-27T14:39:12.663Z,24.33
2018-01-27T14:41:40.992Z,26.90
2018-01-27T14:44:09.353Z,23.92
2018-01-27T14:46:38.651Z,23.15
2018-01-27T14:49:07.004Z,22.48
2018-01-27T14:51:35.352Z,21.80
2018-01-27T14:54:04.456Z,29.27
2018-01-27T14:56:33.581Z,23.35
2018-01-27T14:59:01.918Z,24.87
2018-01-27T15:01:31.050Z,24.40
2018-01-27T15:03:59.375Z,27.75
2018-01-27T15:06:27.724Z,27.67
2018-01-27T15:08:56.075Z,25.20
2018-01-27T15:11:24.397Z,26.27
2018-01-27T15:13:52.914Z,26.87
2018-01-27T15:16:21.234Z,24.60
2018-01-27T15:18:49.584Z,25.15
2018-01-27T15:21:17.909Z,24.10
2018-01-27T15:23:46.259Z,23.77
2018-01-27T15:26:14.802Z,24.92
2018-01-27T15:28:43.184Z,21.25
2018-01-27T15:31:11.805Z,22.33
2018-01-27T15:33:40.133Z,20.92
2018-01-27T15:36:08.489Z,19.10
2018-01-27T15:38:37.768Z,20.17
2018-01-27T15:41:06.121Z,17.92
2018-01-27T15:43:34.503Z,19.35
2018-01-27T15:46:02.809Z,19.37
2018-01-27T15:48:31.262Z,19.50
2018-01-27T15:50:59.760Z,20.95
2018-01-27T15:53:28.112Z,20.80
2018-01-27T15:55:56.430Z,21.62
2018-01-27T15:58:25.576Z,19.17
2018-01-27T16:00:53.891Z,20.25
2018-01-27T16:03:22.259Z,18.98
2018-01-27T16:05:50.586Z,17.80
2018-01-27T16:08:18.945Z,17.40
2018-01-27T16:10:47.893Z,17.27
2018-01-27T16:13:16.448Z,20.00
2018-01-27T16:15:44.775Z,17.70
2018-01-27T16:18:13.210Z,18.52
2018-01-27T16:20:41.541Z,17.60
2018-01-27T16:23:10.917Z,18.20
2018-01-27T16:25:39.330Z,18.62
2018-01-27T16:28:07.748Z,17.17
2018-01-27T16:30:37.390Z,19.08
2018-01-27T16:33:05.824Z,16.62
2018-01-27T16:35:34.397Z,18.80
2018-01-27T16:38:02.890Z,17.42
2018-01-27T16:40:32.294Z,17.83
2018-01-27T16:43:00.872Z,17.40
2018-01-27T16:45:30.553Z,16.87
2018-01-27T16:47:58.988Z,18.30
2018-01-27T16:50:27.608Z,19.00
2018-01-27T16:52:56.028Z,19.27
2018-01-27T16:55:24.547Z,18.30
2018-01-27T16:57:53.028Z,19.90
2018-01-27T17:00:22.374Z,18.17
2018-01-27T17:02:50.711Z,19.40
2018-01-27T17:05:20.009Z,21.23
2018-01-27T17:07:48.532Z,16.52
2018-01-27T17:10:17.163Z,19.02
2018-01-27T17:12:46.036Z,22.23
2018-01-27T17:15:15.313Z,20.17
2018-01-27T17:17:45.293Z,20.25
2018-01-27T17:20:14.603Z,20.85
2018-01-27T17:22:43.106Z,22.42
2018-01-27T17:25:11.490Z,24.42
2018-01-27T17:27:40.105Z,24.75
2018-01-27T17:30:08.596Z,21.33
2018-01-27T17:32:37.747Z,23.85
2018-01-27T17:35:06.832Z,23.30
2018-01-27T17:37:36.173Z,22.95
2018-01-27T17:40:05.978Z,22.80
2018-01-27T17:42:34.469Z,24.45
2018-01-27T17:45:03.104Z,24.98
2018-01-27T17:47:31.787Z,25.30
2018-01-27T17:50:00.466Z,28.48
2018-01-27T17:52:28.942Z,26.25
2018-01-27T17:54:57.387Z,28.30
2018-01-27T17:57:26.741Z,27.98
2018-01-27T17:59:55.155Z,25.17
2018-01-27T18:02:23.664Z,23.38
2018-01-27T18:04:52.177Z,26.40
2018-01-27T18:07:20.522Z,26.73
2018-01-27T18:09:49.155Z,24.15
2018-01-27T18:12:17.752Z,27.10
2018-01-27T18:14:46.144Z,25.67
2018-01-27T18:17:15.503Z,23.45
2018-01-27T18:19:44.106Z,22.30
2018-01-27T18:22:16.901Z,21.50
2018-01-27T18:24:46.235Z,24.17
2018-01-27T18:27:14.780Z,21.27
2018-01-27T18:29:44.747Z,21.33
2018-01-27T18:32:13.277Z,21.30
2018-01-27T18:34:41.867Z,21.70
2018-01-27T18:37:12.290Z,22.25
2018-01-27T18:39:40.745Z,21.45
2018-01-27T18:42:09.452Z,20.45
2018-01-27T18:44:37.905Z,19.73
2018-01-27T18:47:06.675Z,21.17
2018-01-27T18:49:35.977Z,21.12
2018-01-27T18:52:04.605Z,22.80
2018-01-27T18:54:34.102Z,24.55
2018-01-27T18:57:04.224Z,25.80
2018-01-27T18:59:32.863Z,22.37
2018-01-27T19:02:02.594Z,25.48
2018-01-27T19:04:31.343Z,24.25
2018-01-27T19:07:00.135Z,23.65
2018-01-27T19:09:29.013Z,24.50
2018-01-27T19:11:58.241Z,20.60
2018-01-27T19:14:26.894Z,23.60
2018-01-27T19:16:55.362Z,22.10
2018-01-27T19:19:24.243Z,21.87
2018-01-27T19:21:53.414Z,20.85
2018-01-27T19:24:22.074Z,21.80
2018-01-27T19:26:50.920Z,21.90
2018-01-27T19:29:19.673Z,24.83
2018-01-27T19:31:48.386Z,22.95
2018-01-27T19:34:16.870Z,22.02
2018-01-27T19:36:46.542Z,22.80
2018-01-27T19:39:15.082Z,23.30
2018-01-27T19:41:43.929Z,22.70
2018-01-27T19:44:13.085Z,22.25
2018-01-27T19:46:41.914Z,22.52
2018-01-27T19:49:10.807Z,23.42
2018-01-27T19:51:40.092Z,24.33
2018-01-27T19:54:10.449Z,23.62
2018-01-27T19:56:39.380Z,25.10
2018-01-27T19:59:09.111Z,27.65
2018-01-27T20:01:37.846Z,26.05
2018-01-27T20:04:08.058Z,28.98
2018-01-27T20:06:36.980Z,25.62
2018-01-27T20:09:05.561Z,27.23
2018-01-27T20:11:34.133Z,25.12
2018-01-27T20:14:03.031Z,25.25
2018-01-27T20:16:31.983Z,27.05
2018-01-27T20:19:00.673Z,25.60
2018-01-27T20:21:29.492Z,22.58
2018-01-27T20:23:58.686Z,24.85
2018-01-27T20:26:27.244Z,25.80
2018-01-27T20:28:56.253Z,25.27
2018-01-27T20:31:25.185Z,21.85
2018-01-27T20:33:54.773Z,21.45
2018-01-27T20:36:23.667Z,29.40
2018-01-27T20:38:52.496Z,24.67
2018-01-27T20:41:21.433Z,26.67
2018-01-27T20:43:51.478Z,23.42
2018-01-27T20:46:20.225Z,27.75
2018-01-27T20:48:48.986Z,27.70
2018-01-27T20:51:17.888Z,28.45
2018-01-27T20:53:46.651Z,26.33
2018-01-27T20:56:15.284Z,28.30
2018-01-27T20:58:43.897Z,31.10
2018-01-27T21:01:15.108Z,28.10
2018-01-27T21:03:44.450Z,24.40
2018-01-27T21:06:14.481Z,29.30
2018-01-27T21:08:43.101Z,29.25
2018-01-27T21:11:11.738Z,27.70
2018-01-27T21:13:40.637Z,27.83
2018-01-27T21:16:09.230Z,27.75
2018-01-27T21:18:38.252Z,27.10
2018-01-27T21:21:06.879Z,26.17
2018-01-27T21:23:36.548Z,24.63
2018-01-27T21:26:05.597Z,26.15
2018-01-27T21:28:35.360Z,27.20
2018-01-27T21:31:04.838Z,26.05
2018-01-27T21:33:34.445Z,24.92
2018-01-27T21:36:03.614Z,23.50
2018-01-27T21:38:32.173Z,25.02
2018-01-27T21:41:02.393Z,24.73
2018-01-27T21:43:31.756Z,22.35
2018-01-27T21:46:01.502Z,23.38
2018-01-27T21:48:31.373Z,22.23
2018-01-27T21:50:59.958Z,22.30
2018-01-27T21:53:29.959Z,23.38
2018-01-27T21:55:58.956Z,24.83
2018-01-27T21:58:28.333Z,24.05
2018-01-27T22:00:57.318Z,22.40
2018-01-27T22:03:32.334Z,23.92
2018-01-27T22:06:00.900Z,25.20
2018-01-27T22:08:31.061Z,20.73
2018-01-27T22:11:02.204Z,22.20
2018-01-27T22:13:30.833Z,21.62
2018-01-27T22:15:59.539Z,22.08
2018-01-27T22:18:28.179Z,21.60
2018-01-27T22:20:56.757Z,21.27
2018-01-27T22:23:25.542Z,23.23
2018-01-27T22:25:54.666Z,23.38
2018-01-27T22:28:23.224Z,22.20
2018-01-27T22:30:52.440Z,20.88
2018-01-27T22:33:21.731Z,23.12
2018-01-27T22:35:50.914Z,21.33
2018-01-27T22:38:19.796Z,21.60
2018-01-27T22:40:49.345Z,22.67
2018-01-27T22:43:17.850Z,22.67
2018-01-27T22:45:46.629Z,26.35
2018-01-27T22:48:15.310Z,24.35
2018-01-27T22:50:44.125Z,24.55
2018-01-27T22:53:12.827Z,24.42
2018-01-27T22:55:41.905Z,25.42
2018-01-27T22:58:11.226Z,24.37
2018-01-27T23:00:39.857Z,22.50
2018-01-27T23:03:08.942Z,23.12
2018-01-27T23:05:37.783Z,23.35
2018-01-27T23:08:06.940Z,24.33
2018-01-27T23:10:35.729Z,22.25
2018-01-27T23:13:04.219Z,23.20
2018-01-27T23:15:33.537Z,23.67
2018-01-27T23:18:03.272Z,24.67
2018-01-27T23:20:32.881Z,25.00
2018-01-27T23:23:01.777Z,23.58
2018-01-27T23:25:30.249Z,25.52
2018-01-27T23:27:58.881Z,26.37
2018-01-27T23:30:28.266Z,25.42
2018-01-27T23:32:56.764Z,26.60
2018-01-27T23:35:26.017Z,26.20
2018-01-27T23:37:54.645Z,24.73
2018-01-27T23:40:25.442Z,24.52
2018-01-27T23:42:55.388Z,26.98
2018-01-27T23:45:25.037Z,27.67
2018-01-27T23:47:53.429Z,27.73
2018-01-27T23:50:22.036Z,27.98
2018-01-27T23:52:50.665Z,28.25
2018-01-27T23:55:19.137Z,25.85
2018-01-27T23:57:51.582Z,28.92
